sensor_id;sensor_type;location;lat;lon;timestamp;P1;durP1;ratioP1;P2;durP2;ratioP2
48703;SDS011;34502;51.296;16.918;2023-01-15T00:03:52;5.35;;;1.98;;
48703;SDS011;34502;51.296;16.918;2023-01-15T00:06:19;5.05;;;2.28;;
48703;SDS011;34502;51.296;16.918;2023-01-15T00:08:46;6.78;;;2.80;;
48703;SDS011;34502;51.296;16.918;2023-01-15T00:11:12;8.27;;;2.55;;
48703;SDS011;34502;51.296;16.918;2023-01-15T00:13:39;5.47;;;2.40;;
48703;SDS011;34502;51.296;16.918;2023-01-15T00:16:07;5.38;;;2.70;;
48703;SDS011;34502;51.296;16.918;2023-01-15T00:18:37;7.47;;;2.45;;
48703;SDS011;34502;51.296;16.918;2023-01-15T00:21:04;4.45;;;2.08;;
48703;SDS011;34502;51.296;16.918;2023-01-15T00:23:32;7.30;;;2.40;;
48703;SDS011;34502;51.296;16.918;2023-01-15T00:26:17;4.15;;;2.10;;
48703;SDS011;34502;51.296;16.918;2023-01-15T00:36:02;4.57;;;2.58;;
48703;SDS011;34502;51.296;16.918;2023-01-15T00:39:31;6.07;;;2.00;;
48703;SDS011;34502;51.296;16.918;2023-01-15T00:41:59;5.80;;;2.10;;
48703;SDS011;34502;51.296;16.918;2023-01-15T00:44:25;4.72;;;2.15;;
48703;SDS011;34502;51.296;16.918;2023-01-15T00:46:51;4.20;;;1.40;;
48703;SDS011;34502;51.296;16.918;2023-01-15T00:49:18;4.18;;;2.50;;
48703;SDS011;34502;51.296;16.918;2023-01-15T00:51:44;2.78;;;1.85;;
48703;SDS011;34502;51.296;16.918;2023-01-15T00:54:10;3.33;;;1.75;;
48703;SDS011;34502;51.296;16.918;2023-01-15T00:56:36;4.47;;;1.80;;
48703;SDS011;34502;51.296;16.918;2023-01-15T00:59:03;5.38;;;1.90;;
48703;SDS011;34502;51.296;16.918;2023-01-15T01:01:29;3.42;;;1.67;;
48703;SDS011;34502;51.296;16.918;2023-01-15T01:03:55;6.00;;;2.08;;
48703;SDS011;34502;51.296;16.918;2023-01-15T01:06:22;3.67;;;1.80;;
48703;SDS011;34502;51.296;16.918;2023-01-15T01:08:48;3.65;;;2.05;;
48703;SDS011;34502;51.296;16.918;2023-01-15T01:11:15;2.67;;;1.60;;
48703;SDS011;34502;51.296;16.918;2023-01-15T01:13:43;2.72;;;1.42;;
48703;SDS011;34502;51.296;16.918;2023-01-15T01:16:24;3.40;;;1.60;;
48703;SDS011;34502;51.296;16.918;2023-01-15T01:19:02;2.95;;;1.63;;
48703;SDS011;34502;51.296;16.918;2023-01-15T01:21:31;3.10;;;1.75;;
48703;SDS011;34502;51.296;16.918;2023-01-15T01:23:57;2.40;;;1.27;;
48703;SDS011;34502;51.296;16.918;2023-01-15T01:26:23;5.57;;;1.25;;
48703;SDS011;34502;51.296;16.918;2023-01-15T01:28:50;3.30;;;1.42;;
48703;SDS011;34502;51.296;16.918;2023-01-15T01:31:17;4.68;;;1.65;;
48703;SDS011;34502;51.296;16.918;2023-01-15T01:33:43;3.28;;;1.38;;
48703;SDS011;34502;51.296;16.918;2023-01-15T01:36:12;3.85;;;1.40;;
48703;SDS011;34502;51.296;16.918;2023-01-15T01:38:38;2.40;;;1.40;;
48703;SDS011;34502;51.296;16.918;2023-01-15T01:41:04;5.03;;;1.90;;
48703;SDS011;34502;51.296;16.918;2023-01-15T01:43:30;1.67;;;1.33;;
48703;SDS011;34502;51.296;16.918;2023-01-15T01:46:14;3.40;;;1.70;;
48703;SDS011;34502;51.296;16.918;2023-01-15T01:48:40;3.45;;;1.48;;
48703;SDS011;34502;51.296;16.918;2023-01-15T01:51:06;3.33;;;1.75;;
48703;SDS011;34502;51.296;16.918;2023-01-15T01:53:32;2.88;;;1.60;;
48703;SDS011;34502;51.296;16.918;2023-01-15T01:55:58;3.35;;;1.90;;
48703;SDS011;34502;51.296;16.918;2023-01-15T01:58:27;3.03;;;2.08;;
48703;SDS011;34502;51.296;16.918;2023-01-15T02:00:55;5.38;;;2.70;;
48703;SDS011;34502;51.296;16.918;2023-01-15T02:03:22;2.97;;;1.80;;
48703;SDS011;34502;51.296;16.918;2023-01-15T02:05:53;3.97;;;1.92;;
48703;SDS011;34502;51.296;16.918;2023-01-15T02:08:21;3.95;;;2.00;;
48703;SDS011;34502;51.296;16.918;2023-01-15T02:10:48;4.38;;;2.20;;
48703;SDS011;34502;51.296;16.918;2023-01-15T02:13:20;4.55;;;2.50;;
48703;SDS011;34502;51.296;16.918;2023-01-15T02:15:53;4.95;;;2.30;;
48703;SDS011;34502;51.296;16.918;2023-01-15T02:18:28;5.05;;;2.10;;
48703;SDS011;34502;51.296;16.918;2023-01-15T02:21:00;2.53;;;1.80;;
48703;SDS011;34502;51.296;16.918;2023-01-15T02:29:41;4.25;;;2.45;;
48703;SDS011;34502;51.296;16.918;2023-01-15T02:32:12;4.30;;;2.17;;
48703;SDS011;34502;51.296;16.918;2023-01-15T02:34:49;4.25;;;2.30;;
48703;SDS011;34502;51.296;16.918;2023-01-15T02:37:20;3.67;;;1.98;;
48703;SDS011;34502;51.296;16.918;2023-01-15T02:39:51;4.80;;;2.42;;
48703;SDS011;34502;51.296;16.918;2023-01-15T02:42:18;5.05;;;2.47;;
48703;SDS011;34502;51.296;16.918;2023-01-15T02:44:46;3.60;;;2.08;;
48703;SDS011;34502;51.296;16.918;2023-01-15T02:47:15;3.60;;;2.15;;
48703;SDS011;34502;51.296;16.918;2023-01-15T02:49:43;3.55;;;2.10;;
48703;SDS011;34502;51.296;16.918;2023-01-15T02:52:13;2.40;;;1.92;;
48703;SDS011;34502;51.296;16.918;2023-01-15T02:55:02;3.70;;;2.15;;
48703;SDS011;34502;51.296;16.918;2023-01-15T02:57:32;3.70;;;1.90;;
48703;SDS011;34502;51.296;16.918;2023-01-15T03:00:00;3.55;;;2.22;;
48703;SDS011;34502;51.296;16.918;2023-01-15T03:02:32;3.22;;;2.10;;
48703;SDS011;34502;51.296;16.918;2023-01-15T03:10:11;3.80;;;1.90;;
48703;SDS011;34502;51.296;16.918;2023-01-15T03:12:43;3.88;;;1.88;;
48703;SDS011;34502;51.296;16.918;2023-01-15T03:15:29;2.95;;;1.67;;
48703;SDS011;34502;51.296;16.918;2023-01-15T03:18:15;4.15;;;1.60;;
48703;SDS011;34502;51.296;16.918;2023-01-15T03:20:44;3.50;;;1.80;;
48703;SDS011;34502;51.296;16.918;2023-01-15T03:23:15;1.80;;;1.10;;
48703;SDS011;34502;51.296;16.918;2023-01-15T03:25:43;4.05;;;1.52;;
48703;SDS011;34502;51.296;16.918;2023-01-15T03:28:11;2.17;;;1.30;;
48703;SDS011;34502;51.296;16.918;2023-01-15T03:30:39;3.95;;;1.40;;
48703;SDS011;34502;51.296;16.918;2023-01-15T03:33:06;2.55;;;1.10;;
48703;SDS011;34502;51.296;16.918;2023-01-15T03:38:23;2.75;;;1.02;;
48703;SDS011;34502;51.296;16.918;2023-01-15T03:41:21;1.13;;;1.00;;
48703;SDS011;34502;51.296;16.918;2023-01-15T03:47:05;2.10;;;1.52;;
48703;SDS011;34502;51.296;16.918;2023-01-15T03:49:37;1.95;;;1.10;;
48703;SDS011;34502;51.296;16.918;2023-01-15T03:52:09;3.70;;;1.10;;
48703;SDS011;34502;51.296;16.918;2023-01-15T03:57:26;4.82;;;1.52;;
48703;SDS011;34502;51.296;16.918;2023-01-15T04:00:00;2.00;;;1.10;;
48703;SDS011;34502;51.296;16.918;2023-01-15T04:02:49;1.33;;;1.00;;
48703;SDS011;34502;51.296;16.918;2023-01-15T04:05:17;1.73;;;1.08;;
48703;SDS011;34502;51.296;16.918;2023-01-15T04:07:43;2.50;;;1.33;;
48703;SDS011;34502;51.296;16.918;2023-01-15T04:10:11;2.53;;;1.40;;
48703;SDS011;34502;51.296;16.918;2023-01-15T04:12:37;1.38;;;1.20;;
48703;SDS011;34502;51.296;16.918;2023-01-15T04:15:03;2.38;;;1.23;;
48703;SDS011;34502;51.296;16.918;2023-01-15T04:17:30;1.95;;;1.38;;
48703;SDS011;34502;51.296;16.918;2023-01-15T04:19:56;2.80;;;1.42;;
48703;SDS011;34502;51.296;16.918;2023-01-15T04:22:22;2.33;;;1.50;;
48703;SDS011;34502;51.296;16.918;2023-01-15T04:24:48;1.90;;;1.27;;
48703;SDS011;34502;51.296;16.918;2023-01-15T04:27:14;3.55;;;1.60;;
48703;SDS011;34502;51.296;16.918;2023-01-15T04:29:40;1.75;;;1.30;;
48703;SDS011;34502;51.296;16.918;2023-01-15T04:32:06;2.30;;;1.48;;
48703;SDS011;34502;51.296;16.918;2023-01-15T04:34:32;1.85;;;1.40;;
48703;SDS011;34502;51.296;16.918;2023-01-15T04:36:59;1.63;;;1.30;;
48703;SDS011;34502;51.296;16.918;2023-01-15T04:39:25;1.67;;;1.10;;
48703;SDS011;34502;51.296;16.918;2023-01-15T04:41:51;2.80;;;1.15;;
48703;SDS011;34502;51.296;16.918;2023-01-15T04:44:36;5.22;;;1.20;;
48703;SDS011;34502;51.296;16.918;2023-01-15T04:47:03;1.90;;;0.80;;
48703;SDS011;34502;51.296;16.918;2023-01-15T04:49:29;0.80;;;0.60;;
48703;SDS011;34502;51.296;16.918;2023-01-15T04:51:56;0.65;;;0.65;;
48703;SDS011;34502;51.296;16.918;2023-01-15T04:54:22;1.35;;;0.88;;
48703;SDS011;34502;51.296;16.918;2023-01-15T04:56:49;1.63;;;0.80;;
48703;SDS011;34502;51.296;16.918;2023-01-15T04:59:18;1.35;;;0.90;;
48703;SDS011;34502;51.296;16.918;2023-01-15T05:01:45;2.22;;;1.00;;
48703;SDS011;34502;51.296;16.918;2023-01-15T05:04:11;2.80;;;1.08;;
48703;SDS011;34502;51.296;16.918;2023-01-15T05:06:38;1.33;;;0.80;;
48703;SDS011;34502;51.296;16.918;2023-01-15T05:09:04;1.63;;;1.13;;
48703;SDS011;34502;51.296;16.918;2023-01-15T05:11:32;1.65;;;1.20;;
48703;SDS011;34502;51.296;16.918;2023-01-15T05:14:03;3.70;;;1.00;;
48703;SDS011;34502;51.296;16.918;2023-01-15T05:16:29;3.22;;;1.63;;
48703;SDS011;34502;51.296;16.918;2023-01-15T05:18:57;2.80;;;1.40;;
48703;SDS011;34502;51.296;16.918;2023-01-15T05:21:27;3.50;;;1.45;;
48703;SDS011;34502;51.296;16.918;2023-01-15T05:23:55;3.58;;;1.60;;
48703;SDS011;34502;51.296;16.918;2023-01-15T05:26:23;2.47;;;1.48;;
48703;SDS011;34502;51.296;16.918;2023-01-15T05:28:51;1.55;;;1.17;;
48703;SDS011;34502;51.296;16.918;2023-01-15T05:31:18;1.80;;;1.20;;
48703;SDS011;34502;51.296;16.918;2023-01-15T05:33:45;5.05;;;1.38;;
48703;SDS011;34502;51.296;16.918;2023-01-15T05:36:13;1.55;;;1.13;;
48703;SDS011;34502;51.296;16.918;2023-01-15T05:38:41;1.20;;;1.10;;
48703;SDS011;34502;51.296;16.918;2023-01-15T05:41:09;3.67;;;1.13;;
48703;SDS011;34502;51.296;16.918;2023-01-15T05:43:56;3.70;;;1.20;;
48703;SDS011;34502;51.296;16.918;2023-01-15T05:46:24;2.65;;;1.88;;
48703;SDS011;34502;51.296;16.918;2023-01-15T05:48:51;1.88;;;1.58;;
48703;SDS011;34502;51.296;16.918;2023-01-15T05:51:17;3.55;;;1.83;;
48703;SDS011;34502;51.296;16.918;2023-01-15T05:53:43;3.22;;;2.00;;
48703;SDS011;34502;51.296;16.918;2023-01-15T05:56:09;1.83;;;1.50;;
48703;SDS011;34502;51.296;16.918;2023-01-15T05:58:35;3.40;;;1.90;;
48703;SDS011;34502;51.296;16.918;2023-01-15T06:01:08;2.30;;;2.00;;
48703;SDS011;34502;51.296;16.918;2023-01-15T06:03:35;4.00;;;2.00;;
48703;SDS011;34502;51.296;16.918;2023-01-15T06:06:01;4.13;;;1.67;;
48703;SDS011;34502;51.296;16.918;2023-01-15T06:08:28;3.33;;;1.80;;
48703;SDS011;34502;51.296;16.918;2023-01-15T06:10:54;2.25;;;1.58;;
48703;SDS011;34502;51.296;16.918;2023-01-15T06:13:20;1.73;;;1.45;;
48703;SDS011;34502;51.296;16.918;2023-01-15T06:15:46;4.25;;;1.65;;
48703;SDS011;34502;51.296;16.918;2023-01-15T06:18:13;1.60;;;1.50;;
48703;SDS011;34502;51.296;16.918;2023-01-15T06:20:39;3.25;;;1.85;;
48703;SDS011;34502;51.296;16.918;2023-01-15T06:23:06;2.63;;;1.85;;
48703;SDS011;34502;51.296;16.918;2023-01-15T06:25:33;3.65;;;1.80;;
48703;SDS011;34502;51.296;16.918;2023-01-15T06:28:01;4.55;;;1.95;;
48703;SDS011;34502;51.296;16.918;2023-01-15T06:30:31;2.40;;;1.90;;
48703;SDS011;34502;51.296;16.918;2023-01-15T06:32:58;3.05;;;1.92;;
48703;SDS011;34502;51.296;16.918;2023-01-15T06:35:24;2.20;;;1.88;;
48703;SDS011;34502;51.296;16.918;2023-01-15T06:37:51;1.92;;;1.60;;
48703;SDS011;34502;51.296;16.918;2023-01-15T06:40:17;3.88;;;1.60;;
48703;SDS011;34502;51.296;16.918;2023-01-15T06:42:43;2.53;;;1.70;;
48703;SDS011;34502;51.296;16.918;2023-01-15T06:45:30;3.28;;;1.60;;
48703;SDS011;34502;51.296;16.918;2023-01-15T06:50:47;2.17;;;1.33;;
48703;SDS011;34502;51.296;16.918;2023-01-15T06:53:13;1.95;;;1.45;;
48703;SDS011;34502;51.296;16.918;2023-01-15T06:55:39;3.47;;;2.25;;
48703;SDS011;34502;51.296;16.918;2023-01-15T06:58:06;1.67;;;0.73;;
48703;SDS011;34502;51.296;16.918;2023-01-15T07:00:32;1.73;;;0.90;;
48703;SDS011;34502;51.296;16.918;2023-01-15T07:02:58;1.10;;;1.00;;
48703;SDS011;34502;51.296;16.918;2023-01-15T07:05:25;1.85;;;0.80;;
48703;SDS011;34502;51.296;16.918;2023-01-15T07:07:51;1.42;;;1.17;;
48703;SDS011;34502;51.296;16.918;2023-01-15T07:10:18;1.42;;;0.85;;
48703;SDS011;34502;51.296;16.918;2023-01-15T07:12:44;0.77;;;0.70;;
48703;SDS011;34502;51.296;16.918;2023-01-15T07:15:10;2.17;;;1.25;;
48703;SDS011;34502;51.296;16.918;2023-01-15T07:17:36;2.13;;;0.70;;
48703;SDS011;34502;51.296;16.918;2023-01-15T07:20:02;0.85;;;0.70;;
48703;SDS011;34502;51.296;16.918;2023-01-15T07:22:29;1.67;;;0.95;;
48703;SDS011;34502;51.296;16.918;2023-01-15T07:24:55;1.38;;;0.80;;
48703;SDS011;34502;51.296;16.918;2023-01-15T07:27:22;0.75;;;0.70;;
48703;SDS011;34502;51.296;16.918;2023-01-15T07:29:48;1.48;;;0.90;;
48703;SDS011;34502;51.296;16.918;2023-01-15T07:32:16;1.05;;;0.93;;
48703;SDS011;34502;51.296;16.918;2023-01-15T07:34:42;1.30;;;0.80;;
48703;SDS011;34502;51.296;16.918;2023-01-15T07:37:08;2.42;;;0.70;;
48703;SDS011;34502;51.296;16.918;2023-01-15T07:39:35;2.28;;;0.90;;
48703;SDS011;34502;51.296;16.918;2023-01-15T07:42:01;1.45;;;0.90;;
48703;SDS011;34502;51.296;16.918;2023-01-15T07:44:45;1.02;;;0.65;;
48703;SDS011;34502;51.296;16.918;2023-01-15T07:47:30;0.90;;;0.70;;
48703;SDS011;34502;51.296;16.918;2023-01-15T07:50:16;2.58;;;0.82;;
48703;SDS011;34502;51.296;16.918;2023-01-15T07:52:44;1.33;;;0.70;;
48703;SDS011;34502;51.296;16.918;2023-01-15T07:55:10;1.00;;;0.70;;
48703;SDS011;34502;51.296;16.918;2023-01-15T07:57:37;0.90;;;0.70;;
48703;SDS011;34502;51.296;16.918;2023-01-15T08:00:05;0.75;;;0.70;;
48703;SDS011;34502;51.296;16.918;2023-01-15T08:02:36;0.73;;;0.70;;
48703;SDS011;34502;51.296;16.918;2023-01-15T08:05:02;0.65;;;0.60;;
48703;SDS011;34502;51.296;16.918;2023-01-15T08:07:28;0.80;;;0.80;;
48703;SDS011;34502;51.296;16.918;2023-01-15T08:09:54;1.00;;;0.65;;
48703;SDS011;34502;51.296;16.918;2023-01-15T08:12:20;2.47;;;1.30;;
48703;SDS011;34502;51.296;16.918;2023-01-15T08:15:05;1.33;;;0.80;;
48703;SDS011;34502;51.296;16.918;2023-01-15T08:17:41;1.42;;;1.00;;
48703;SDS011;34502;51.296;16.918;2023-01-15T08:20:10;3.92;;;0.95;;
48703;SDS011;34502;51.296;16.918;2023-01-15T08:22:41;1.90;;;0.90;;
48703;SDS011;34502;51.296;16.918;2023-01-15T08:25:08;3.65;;;0.80;;
48703;SDS011;34502;51.296;16.918;2023-01-15T08:27:37;1.48;;;1.10;;
48703;SDS011;34502;51.296;16.918;2023-01-15T08:30:04;1.23;;;1.02;;
48703;SDS011;34502;51.296;16.918;2023-01-15T08:32:32;3.05;;;1.33;;
48703;SDS011;34502;51.296;16.918;2023-01-15T08:34:58;2.63;;;1.80;;
48703;SDS011;34502;51.296;16.918;2023-01-15T08:37:24;3.50;;;2.28;;
48703;SDS011;34502;51.296;16.918;2023-01-15T08:39:50;2.33;;;1.77;;
48703;SDS011;34502;51.296;16.918;2023-01-15T08:42:17;2.78;;;1.83;;
48703;SDS011;34502;51.296;16.918;2023-01-15T08:44:44;2.08;;;1.58;;
48703;SDS011;34502;51.296;16.918;2023-01-15T08:47:11;2.10;;;1.25;;
48703;SDS011;34502;51.296;16.918;2023-01-15T08:49:37;2.13;;;1.67;;
48703;SDS011;34502;51.296;16.918;2023-01-15T08:52:03;1.52;;;1.42;;
48703;SDS011;34502;51.296;16.918;2023-01-15T08:54:29;1.98;;;1.35;;
48703;SDS011;34502;51.296;16.918;2023-01-15T08:56:56;2.45;;;1.85;;
48703;SDS011;34502;51.296;16.918;2023-01-15T08:59:23;3.45;;;2.45;;
48703;SDS011;34502;51.296;16.918;2023-01-15T09:01:49;3.45;;;2.40;;
48703;SDS011;34502;51.296;16.918;2023-01-15T09:04:16;4.10;;;2.83;;
48703;SDS011;34502;51.296;16.918;2023-01-15T09:06:43;7.50;;;4.63;;
48703;SDS011;34502;51.296;16.918;2023-01-15T09:09:10;7.35;;;4.22;;
48703;SDS011;34502;51.296;16.918;2023-01-15T09:11:36;6.22;;;4.38;;
48703;SDS011;34502;51.296;16.918;2023-01-15T09:14:06;7.60;;;4.70;;
48703;SDS011;34502;51.296;16.918;2023-01-15T09:16:33;5.82;;;3.83;;
48703;SDS011;34502;51.296;16.918;2023-01-15T09:18:59;5.97;;;4.05;;
48703;SDS011;34502;51.296;16.918;2023-01-15T09:21:25;5.13;;;3.05;;
48703;SDS011;34502;51.296;16.918;2023-01-15T09:23:52;5.93;;;3.67;;
48703;SDS011;34502;51.296;16.918;2023-01-15T09:26:29;5.65;;;3.13;;
48703;SDS011;34502;51.296;16.918;2023-01-15T09:28:56;5.22;;;3.17;;
48703;SDS011;34502;51.296;16.918;2023-01-15T09:31:23;7.20;;;2.95;;
48703;SDS011;34502;51.296;16.918;2023-01-15T09:33:50;5.13;;;3.22;;
48703;SDS011;34502;51.296;16.918;2023-01-15T09:36:17;4.72;;;2.95;;
48703;SDS011;34502;51.296;16.918;2023-01-15T09:38:55;4.50;;;2.75;;
48703;SDS011;34502;51.296;16.918;2023-01-15T09:41:22;3.25;;;2.88;;
48703;SDS011;34502;51.296;16.918;2023-01-15T09:47:29;4.22;;;3.15;;
48703;SDS011;34502;51.296;16.918;2023-01-15T09:50:02;5.07;;;3.53;;
48703;SDS011;34502;51.296;16.918;2023-01-15T09:55:16;4.20;;;3.08;;
48703;SDS011;34502;51.296;16.918;2023-01-15T09:57:49;5.05;;;3.30;;
48703;SDS011;34502;51.296;16.918;2023-01-15T10:00:23;4.20;;;3.08;;
48703;SDS011;34502;51.296;16.918;2023-01-15T10:02:56;4.93;;;3.35;;
48703;SDS011;34502;51.296;16.918;2023-01-15T10:05:33;5.38;;;3.60;;
48703;SDS011;34502;51.296;16.918;2023-01-15T10:08:25;4.38;;;3.20;;
48703;SDS011;34502;51.296;16.918;2023-01-15T10:11:03;5.50;;;3.88;;
48703;SDS011;34502;51.296;16.918;2023-01-15T10:13:40;4.53;;;3.40;;
48703;SDS011;34502;51.296;16.918;2023-01-15T10:16:08;5.88;;;3.70;;
48703;SDS011;34502;51.296;16.918;2023-01-15T10:18:37;6.45;;;3.38;;
48703;SDS011;34502;51.296;16.918;2023-01-15T10:21:13;5.80;;;3.75;;
48703;SDS011;34502;51.296;16.918;2023-01-15T10:26:16;4.82;;;3.40;;
48703;SDS011;34502;51.296;16.918;2023-01-15T10:34:39;4.47;;;3.47;;
48703;SDS011;34502;51.296;16.918;2023-01-15T10:43:12;7.07;;;4.03;;
48703;SDS011;34502;51.296;16.918;2023-01-15T10:45:59;5.38;;;3.92;;
48703;SDS011;34502;51.296;16.918;2023-01-15T10:48:39;8.80;;;4.40;;
48703;SDS011;34502;51.296;16.918;2023-01-15T10:51:53;11.75;;;7.47;;
48703;SDS011;34502;51.296;16.918;2023-01-15T11:02:13;7.43;;;5.03;;
48703;SDS011;34502;51.296;16.918;2023-01-15T11:05:01;9.27;;;5.90;;
48703;SDS011;34502;51.296;16.918;2023-01-15T11:07:35;7.88;;;5.03;;
48703;SDS011;34502;51.296;16.918;2023-01-15T11:10:05;6.43;;;4.22;;
48703;SDS011;34502;51.296;16.918;2023-01-15T11:12:37;7.32;;;5.00;;
48703;SDS011;34502;51.296;16.918;2023-01-15T11:15:23;6.40;;;4.00;;
48703;SDS011;34502;51.296;16.918;2023-01-15T11:18:21;7.20;;;4.60;;
48703;SDS011;34502;51.296;16.918;2023-01-15T11:21:17;4.57;;;3.67;;
48703;SDS011;34502;51.296;16.918;2023-01-15T11:23:45;4.95;;;3.70;;
48703;SDS011;34502;51.296;16.918;2023-01-15T11:26:20;4.47;;;3.50;;
48703;SDS011;34502;51.296;16.918;2023-01-15T11:28:48;6.68;;;3.85;;
48703;SDS011;34502;51.296;16.918;2023-01-15T11:31:15;5.78;;;4.00;;
48703;SDS011;34502;51.296;16.918;2023-01-15T11:33:54;14.30;;;7.57;;
48703;SDS011;34502;51.296;16.918;2023-01-15T11:36:24;19.23;;;9.25;;
48703;SDS011;34502;51.296;16.918;2023-01-15T11:38:51;13.32;;;7.40;;
48703;SDS011;34502;51.296;16.918;2023-01-15T11:41:27;10.57;;;6.80;;
48703;SDS011;34502;51.296;16.918;2023-01-15T11:44:14;8.70;;;5.80;;
48703;SDS011;34502;51.296;16.918;2023-01-15T11:47:00;11.88;;;6.32;;
48703;SDS011;34502;51.296;16.918;2023-01-15T11:49:52;30.98;;;14.55;;
48703;SDS011;34502;51.296;16.918;2023-01-15T11:52:38;30.55;;;13.48;;
48703;SDS011;34502;51.296;16.918;2023-01-15T11:55:15;13.93;;;6.05;;
48703;SDS011;34502;51.296;16.918;2023-01-15T11:57:43;8.25;;;4.68;;
48703;SDS011;34502;51.296;16.918;2023-01-15T12:00:18;4.80;;;3.28;;
48703;SDS011;34502;51.296;16.918;2023-01-15T12:02:49;6.18;;;3.85;;
48703;SDS011;34502;51.296;16.918;2023-01-15T12:05:22;7.40;;;4.78;;
48703;SDS011;34502;51.296;16.918;2023-01-15T12:07:51;10.63;;;6.40;;
48703;SDS011;34502;51.296;16.918;2023-01-15T12:10:23;23.00;;;11.52;;
48703;SDS011;34502;51.296;16.918;2023-01-15T12:26:37;8.75;;;5.20;;
48703;SDS011;34502;51.296;16.918;2023-01-15T12:29:29;4.55;;;3.15;;
48703;SDS011;34502;51.296;16.918;2023-01-15T12:32:07;2.65;;;1.73;;
48703;SDS011;34502;51.296;16.918;2023-01-15T12:37:25;8.05;;;3.42;;
48703;SDS011;34502;51.296;16.918;2023-01-15T12:40:06;9.40;;;5.05;;
48703;SDS011;34502;51.296;16.918;2023-01-15T12:42:54;10.27;;;6.03;;
48703;SDS011;34502;51.296;16.918;2023-01-15T12:45:41;15.15;;;9.18;;
48703;SDS011;34502;51.296;16.918;2023-01-15T12:50:54;21.35;;;10.35;;
48703;SDS011;34502;51.296;16.918;2023-01-15T12:53:33;13.30;;;6.43;;
48703;SDS011;34502;51.296;16.918;2023-01-15T13:04:19;16.65;;;6.45;;
48703;SDS011;34502;51.296;16.918;2023-01-15T13:07:31;17.48;;;7.28;;
48703;SDS011;34502;51.296;16.918;2023-01-15T13:10:14;31.45;;;12.45;;
48703;SDS011;34502;51.296;16.918;2023-01-15T13:12:41;16.50;;;7.47;;
48703;SDS011;34502;51.296;16.918;2023-01-15T13:15:12;25.58;;;14.00;;
48703;SDS011;34502;51.296;16.918;2023-01-15T13:26:00;16.17;;;11.57;;
48703;SDS011;34502;51.296;16.918;2023-01-15T13:28:52;8.77;;;5.88;;
48703;SDS011;34502;51.296;16.918;2023-01-15T13:31:42;11.30;;;5.97;;
48703;SDS011;34502;51.296;16.918;2023-01-15T13:34:18;29.10;;;13.30;;
48703;SDS011;34502;51.296;16.918;2023-01-15T13:36:51;35.50;;;17.17;;
48703;SDS011;34502;51.296;16.918;2023-01-15T13:39:20;20.08;;;9.80;;
48703;SDS011;34502;51.296;16.918;2023-01-15T13:41:48;18.67;;;9.00;;
48703;SDS011;34502;51.296;16.918;2023-01-15T13:44:36;16.20;;;5.60;;
48703;SDS011;34502;51.296;16.918;2023-01-15T13:47:10;39.35;;;15.80;;
48703;SDS011;34502;51.296;16.918;2023-01-15T13:49:39;7.18;;;3.83;;
48703;SDS011;34502;51.296;16.918;2023-01-15T13:57:37;15.50;;;5.50;;
48703;SDS011;34502;51.296;16.918;2023-01-15T14:03:00;9.32;;;3.85;;
48703;SDS011;34502;51.296;16.918;2023-01-15T14:05:29;11.23;;;4.45;;
48703;SDS011;34502;51.296;16.918;2023-01-15T14:07:57;21.95;;;8.57;;
48703;SDS011;34502;51.296;16.918;2023-01-15T14:13:00;9.32;;;4.22;;
48703;SDS011;34502;51.296;16.918;2023-01-15T14:15:37;6.40;;;3.60;;
48703;SDS011;34502;51.296;16.918;2023-01-15T14:34:28;2.28;;;1.10;;
48703;SDS011;34502;51.296;16.918;2023-01-15T14:36:57;2.38;;;2.03;;
48703;SDS011;34502;51.296;16.918;2023-01-15T14:47:45;1.05;;;0.95;;
48703;SDS011;34502;51.296;16.918;2023-01-15T14:52:47;1.90;;;1.10;;
48703;SDS011;34502;51.296;16.918;2023-01-15T14:55:18;1.25;;;0.90;;
48703;SDS011;34502;51.296;16.918;2023-01-15T14:57:46;2.08;;;1.13;;
48703;SDS011;34502;51.296;16.918;2023-01-15T15:00:18;1.33;;;1.23;;
48703;SDS011;34502;51.296;16.918;2023-01-15T15:02:45;1.58;;;0.98;;
48703;SDS011;34502;51.296;16.918;2023-01-15T15:05:13;2.72;;;1.85;;
48703;SDS011;34502;51.296;16.918;2023-01-15T15:07:41;9.55;;;4.95;;
48703;SDS011;34502;51.296;16.918;2023-01-15T15:15:20;9.43;;;5.20;;
48703;SDS011;34502;51.296;16.918;2023-01-15T15:23:27;6.30;;;3.38;;
48703;SDS011;34502;51.296;16.918;2023-01-15T15:26:05;7.07;;;3.70;;
48703;SDS011;34502;51.296;16.918;2023-01-15T15:29:00;5.15;;;3.55;;
48703;SDS011;34502;51.296;16.918;2023-01-15T15:31:32;6.43;;;4.43;;
48703;SDS011;34502;51.296;16.918;2023-01-15T15:34:25;4.75;;;3.00;;
48703;SDS011;34502;51.296;16.918;2023-01-15T15:36:53;4.05;;;3.17;;
48703;SDS011;34502;51.296;16.918;2023-01-15T15:41:51;8.70;;;5.47;;
48703;SDS011;34502;51.296;16.918;2023-01-15T15:44:43;7.28;;;4.53;;
48703;SDS011;34502;51.296;16.918;2023-01-15T15:47:34;4.53;;;3.50;;
48703;SDS011;34502;51.296;16.918;2023-01-15T15:50:23;4.55;;;3.50;;
48703;SDS011;34502;51.296;16.918;2023-01-15T15:52:55;3.97;;;3.20;;
48703;SDS011;34502;51.296;16.918;2023-01-15T15:55:22;7.97;;;5.28;;
48703;SDS011;34502;51.296;16.918;2023-01-15T15:57:52;10.35;;;7.63;;
48703;SDS011;34502;51.296;16.918;2023-01-15T16:00:25;10.70;;;6.70;;
48703;SDS011;34502;51.296;16.918;2023-01-15T16:03:06;7.00;;;5.05;;
48703;SDS011;34502;51.296;16.918;2023-01-15T16:05:53;6.00;;;4.40;;
48703;SDS011;34502;51.296;16.918;2023-01-15T16:08:20;8.50;;;4.80;;
48703;SDS011;34502;51.296;16.918;2023-01-15T16:10:46;5.28;;;4.45;;
48703;SDS011;34502;51.296;16.918;2023-01-15T16:13:31;8.75;;;4.65;;
48703;SDS011;34502;51.296;16.918;2023-01-15T16:16:00;6.95;;;4.65;;
48703;SDS011;34502;51.296;16.918;2023-01-15T16:18:30;6.82;;;5.15;;
48703;SDS011;34502;51.296;16.918;2023-01-15T16:20:59;9.25;;;4.93;;
48703;SDS011;34502;51.296;16.918;2023-01-15T16:23:26;5.63;;;4.90;;
48703;SDS011;34502;51.296;16.918;2023-01-15T16:28:25;11.40;;;7.15;;
48703;SDS011;34502;51.296;16.918;2023-01-15T16:30:56;11.63;;;8.15;;
48703;SDS011;34502;51.296;16.918;2023-01-15T16:33:23;9.50;;;7.57;;
48703;SDS011;34502;51.296;16.918;2023-01-15T16:35:57;9.57;;;7.13;;
48703;SDS011;34502;51.296;16.918;2023-01-15T16:38:23;12.40;;;7.43;;
48703;SDS011;34502;51.296;16.918;2023-01-15T16:40:50;10.93;;;6.53;;
48703;SDS011;34502;51.296;16.918;2023-01-15T16:43:18;9.07;;;6.43;;
48703;SDS011;34502;51.296;16.918;2023-01-15T16:46:16;10.13;;;6.85;;
48703;SDS011;34502;51.296;16.918;2023-01-15T16:48:44;9.23;;;7.05;;
48703;SDS011;34502;51.296;16.918;2023-01-15T16:53:58;9.02;;;6.70;;
48703;SDS011;34502;51.296;16.918;2023-01-15T16:59:02;8.18;;;6.35;;
48703;SDS011;34502;51.296;16.918;2023-01-15T17:01:37;8.88;;;6.80;;
48703;SDS011;34502;51.296;16.918;2023-01-15T17:04:18;12.32;;;7.68;;
48703;SDS011;34502;51.296;16.918;2023-01-15T17:09:22;10.43;;;7.07;;
48703;SDS011;34502;51.296;16.918;2023-01-15T17:11:48;11.23;;;7.45;;
48703;SDS011;34502;51.296;16.918;2023-01-15T17:16:46;10.10;;;8.27;;
48703;SDS011;34502;51.296;16.918;2023-01-15T17:19:13;10.30;;;7.88;;
48703;SDS011;34502;51.296;16.918;2023-01-15T17:21:40;11.45;;;8.73;;
48703;SDS011;34502;51.296;16.918;2023-01-15T17:24:11;12.32;;;8.93;;
48703;SDS011;34502;51.296;16.918;2023-01-15T17:26:37;12.38;;;8.40;;
48703;SDS011;34502;51.296;16.918;2023-01-15T17:29:03;12.35;;;9.32;;
48703;SDS011;34502;51.296;16.918;2023-01-15T17:31:30;14.18;;;9.20;;
48703;SDS011;34502;51.296;16.918;2023-01-15T17:33:58;13.68;;;9.55;;
48703;SDS011;34502;51.296;16.918;2023-01-15T17:36:25;15.02;;;11.35;;
48703;SDS011;34502;51.296;16.918;2023-01-15T17:38:53;13.80;;;10.57;;